Time;durP1;ratioP1;P1;durP2;ratioP2;P2;SDS_P1;SDS_P2;PMS_P1;PMS_P2;Temp;Humidity;BMP_temperature;BMP_pressure;BME280_temperature;BME280_humidity;BME280_pressure;Samples;Min_cycle;Max_cycle;Signal;HPM_P1;HPM_P2
2023/03/18 00:00:10;;;;;;;;;;;;;;;1.94;61.45;99962.50;5115982;28;19926;-63
2023/03/18 00:02:40;;;;;;;;;;;;;;;1.91;61.54;99961.53;5115953;28;19999;-63
2023/03/18 00:05:12;;;;;;;;;;;;;;;1.91;61.86;99956.50;5116021;28;19930;-63
2023/03/18 00:07:41;;;;;;;;;;;;;;;1.80;61.50;99962.81;5116259;28;19984;-63
2023/03/18 00:10:11;;;;;;;;;;;;;;;1.74;62.09;99957.53;5115719;28;19924;-63
2023/03/18 00:12:41;;;;;;;;;;;;;;;1.70;62.74;99951.53;5116718;27;19946;-63
2023/03/18 00:15:11;;;;;;;;;;;;;;;1.70;62.20;99953.19;5115670;28;20035;-63
2023/03/18 00:17:40;;;;;;;;;;;;;;;1.66;62.44;99953.84;5115531;28;19927;-63
2023/03/18 00:20:11;;;;;;;;;;;;;;;1.61;62.71;99950.31;5115662;28;20387;-63
2023/03/18 00:22:42;;;;;;;;;;;;;;;1.57;62.97;99954.34;5115598;28;19923;-63
2023/03/18 00:25:12;;;;;;;;;;;;;;;1.57;63.01;99943.44;5116216;28;20285;-63
2023/03/18 00:27:40;;;;;;;;;;;;;;;1.58;63.33;99945.16;5114219;28;19920;-63
2023/03/18 00:30:11;;;;;;;;;;;;;;;1.52;62.54;99954.97;5115357;28;19919;-63
2023/03/18 00:32:40;;;;;;;;;;;;;;;1.49;62.87;99959.91;5115740;28;20320;-63
2023/03/18 00:35:09;;;;;;;;;;;;;;;1.42;63.82;99947.88;5115323;28;19920;-63
2023/03/18 00:37:38;;;;;;;;;;;;;;;1.40;63.94;99944.41;5115270;28;19919;-63
2023/03/18 00:40:16;;;;;;;;;;;;;;;1.43;63.62;99949.59;5115466;28;20046;-63
2023/03/18 00:42:49;;;;;;;;;;;;;;;1.50;63.60;99936.44;5115271;28;19923;-63
2023/03/18 00:45:19;;;;;;;;;;;;;;;1.47;63.93;99947.25;5115224;28;19923;-63
2023/03/18 00:47:49;;;;;;;;;;;;;;;1.42;64.09;99937.81;5114221;28;20319;-63
2023/03/18 00:50:18;;;;;;;;;;;;;;;1.42;64.07;99935.31;5113903;28;20385;-63
2023/03/18 00:52:46;;;;;;;;;;;;;;;1.35;64.29;99935.06;5115356;28;19981;-63
2023/03/18 00:55:17;;;;;;;;;;;;;;;1.32;63.60;99934.06;5115314;28;19920;-63
2023/03/18 00:57:45;;;;;;;;;;;;;;;1.39;63.77;99933.53;5115454;28;20254;-63
2023/03/18 01:00:15;;;;;;;;;;;;;;;1.38;63.76;99930.94;5114092;28;19919;-63
2023/03/18 01:02:44;;;;;;;;;;;;;;;1.32;63.40;99932.41;5115086;28;20018;-63
2023/03/18 01:05:13;;;;;;;;;;;;;;;1.39;64.04;99922.59;5114825;28;20036;-62
2023/03/18 01:07:42;;;;;;;;;;;;;;;1.41;63.75;99921.00;5113580;28;19920;-63
2023/03/18 01:10:11;;;;;;;;;;;;;;;1.42;63.53;99922.75;5115092;28;19920;-63
2023/03/18 01:12:42;;;;;;;;;;;;;;;1.43;63.95;99924.44;5114603;28;19955;-63
2023/03/18 01:15:12;;;;;;;;;;;;;;;1.43;63.63;99919.41;5114708;28;19920;-63
2023/03/18 01:17:41;;;;;;;;;;;;;;;1.46;63.56;99924.56;5113442;28;19981;-63
2023/03/18 01:20:11;;;;;;;;;;;;;;;1.48;63.46;99921.31;5113486;28;20014;-63
2023/03/18 01:22:41;;;;;;;;;;;;;;;1.47;63.31;99918.72;5114477;28;20006;-63
2023/03/18 01:25:11;;;;;;;;;;;;;;;1.46;63.30;99914.50;5114597;28;19946;-63
2023/03/18 01:27:40;;;;;;;;;;;;;;;1.44;63.58;99911.06;5113315;28;19946;-63
2023/03/18 01:30:12;;;;;;;;;;;;;;;1.39;63.29;99918.44;5114496;28;20006;-63
2023/03/18 01:32:43;;;;;;;;;;;;;;;1.32;63.78;99917.31;5114433;28;19919;-63
2023/03/18 01:35:12;;;;;;;;;;;;;;;1.30;63.67;99916.41;5113623;28;19942;-63
2023/03/18 01:37:45;;;;;;;;;;;;;;;1.36;63.74;99908.25;5114437;28;19963;-63
2023/03/18 01:40:15;;;;;;;;;;;;;;;1.43;63.01;99914.38;5113029;28;19924;-63
2023/03/18 01:42:48;;;;;;;;;;;;;;;1.41;63.71;99903.41;5114326;28;19926;-63
2023/03/18 01:45:20;;;;;;;;;;;;;;;1.40;63.51;99906.72;5114369;28;19927;-63
2023/03/18 01:47:53;;;;;;;;;;;;;;;1.35;63.35;99904.88;5114681;28;19927;-63
2023/03/18 01:50:25;;;;;;;;;;;;;;;1.24;63.53;99912.81;5114587;28;20002;-63
2023/03/18 01:52:55;;;;;;;;;;;;;;;1.24;63.87;99908.66;5113021;28;19919;-63
2023/03/18 01:55:26;;;;;;;;;;;;;;;1.22;64.27;99910.22;5114287;28;20010;-63
2023/03/18 01:57:55;;;;;;;;;;;;;;;1.33;63.79;99911.50;5114220;28;19920;-63
2023/03/18 02:00:26;;;;;;;;;;;;;;;1.38;63.54;99908.31;5113000;28;19924;-63
2023/03/18 02:02:54;;;;;;;;;;;;;;;1.34;63.38;99910.69;5113035;28;19924;-63
2023/03/18 02:05:24;;;;;;;;;;;;;;;1.25;64.12;99900.28;5113005;28;20377;-63
2023/03/18 02:07:56;;;;;;;;;;;;;;;1.23;64.01;99906.91;5115382;28;20303;-63
2023/03/18 02:10:25;;;;;;;;;;;;;;;1.15;63.91;99907.41;5112954;28;19920;-63
2023/03/18 02:12:59;;;;;;;;;;;;;;;1.06;64.71;99896.97;5112965;28;19920;-63
2023/03/18 02:15:36;;;;;;;;;;;;;;;1.04;65.00;99906.97;5114104;28;19920;-63
2023/03/18 02:18:10;;;;;;;;;;;;;;;1.02;64.88;99901.03;5113926;28;19920;-63
2023/03/18 02:20:45;;;;;;;;;;;;;;;1.03;64.95;99905.25;5114080;28;20014;-63
2023/03/18 02:23:38;;;;;;;;;;;;;;;1.06;64.77;99910.41;5112815;28;19920;-63
2023/03/18 02:26:11;;;;;;;;;;;;;;;1.06;65.04;99902.88;5112815;28;19934;-63
2023/03/18 02:28:42;;;;;;;;;;;;;;;1.09;65.05;99913.06;5114321;28;19973;-63
2023/03/18 02:31:13;;;;;;;;;;;;;;;1.03;64.82;99902.72;5113106;28;20292;-63
2023/03/18 02:33:43;;;;;;;;;;;;;;;0.98;65.00;99909.25;5114287;28;20312;-63
2023/03/18 02:36:14;;;;;;;;;;;;;;;1.00;65.62;99902.63;5113819;28;19923;-63
2023/03/18 02:38:44;;;;;;;;;;;;;;;0.94;65.37;99907.41;5114202;28;19919;-63
2023/03/18 02:41:21;;;;;;;;;;;;;;;0.96;65.72;99907.47;5112847;28;19927;-63
2023/03/18 02:43:52;;;;;;;;;;;;;;;0.93;65.65;99898.16;5114241;28;19920;-63
2023/03/18 02:46:27;;;;;;;;;;;;;;;0.87;65.42;99900.41;5112615;28;19924;-63
2023/03/18 02:48:57;;;;;;;;;;;;;;;0.91;66.09;99894.69;5112635;28;19919;-63
2023/03/18 02:51:27;;;;;;;;;;;;;;;0.98;65.59;99899.22;5114135;28;19920;-63
2023/03/18 02:53:58;;;;;;;;;;;;;;;0.91;65.84;99897.22;5116490;28;19920;-63
2023/03/18 02:56:29;;;;;;;;;;;;;;;0.89;65.47;99900.50;5117312;28;19969;-63
2023/03/18 02:58:58;;;;;;;;;;;;;;;0.82;65.62;99901.88;5116415;28;19945;-63
2023/03/18 03:01:27;;;;;;;;;;;;;;;0.86;66.00;99897.84;5116066;28;19919;-63
2023/03/18 03:03:56;;;;;;;;;;;;;;;0.86;65.78;99898.72;5115983;28;19919;-63
2023/03/18 03:06:25;;;;;;;;;;;;;;;0.89;65.57;99898.81;5117059;28;19963;-63
2023/03/18 03:08:53;;;;;;;;;;;;;;;0.90;65.50;99905.56;5117105;28;20397;-63
2023/03/18 03:11:24;;;;;;;;;;;;;;;0.89;65.54;99903.84;5116694;28;19920;-63
2023/03/18 03:13:56;;;;;;;;;;;;;;;0.94;66.03;99907.41;5117009;28;19926;-63
2023/03/18 03:16:27;;;;;;;;;;;;;;;0.85;65.44;99902.00;5116855;28;20365;-63
2023/03/18 03:18:57;;;;;;;;;;;;;;;0.84;65.82;99902.78;5116632;28;19919;-63
2023/03/18 03:21:26;;;;;;;;;;;;;;;0.81;65.91;99905.19;5115914;28;20281;-63
2023/03/18 03:23:55;;;;;;;;;;;;;;;0.84;65.83;99901.94;5116728;28;19920;-63
2023/03/18 03:26:24;;;;;;;;;;;;;;;0.77;65.80;99905.84;5116905;28;20395;-63
2023/03/18 03:28:52;;;;;;;;;;;;;;;0.79;66.04;99901.75;5116646;27;20365;-63
2023/03/18 03:31:21;;;;;;;;;;;;;;;0.77;66.15;99908.34;5116609;28;19924;-63
2023/03/18 03:33:51;;;;;;;;;;;;;;;0.81;66.11;99905.19;5116561;28;19919;-63
2023/03/18 03:36:20;;;;;;;;;;;;;;;0.85;66.02;99902.00;5116838;28;19942;-63
2023/03/18 03:38:49;;;;;;;;;;;;;;;0.88;65.75;99901.28;5116398;28;19920;-63
2023/03/18 03:41:19;;;;;;;;;;;;;;;0.85;66.12;99904.50;5116427;28;19958;-63
2023/03/18 03:43:49;;;;;;;;;;;;;;;0.88;65.72;99904.66;5116495;28;20002;-63
2023/03/18 03:46:18;;;;;;;;;;;;;;;0.80;65.78;99907.63;5116208;28;19919;-64
2023/03/18 03:48:46;;;;;;;;;;;;;;;0.83;66.27;99908.63;5115438;28;19927;-63
2023/03/18 03:51:18;;;;;;;;;;;;;;;0.84;65.93;99915.34;5116557;28;20328;-63
2023/03/18 03:53:46;;;;;;;;;;;;;;;0.84;65.91;99915.34;5115402;28;19942;-63
2023/03/18 03:56:16;;;;;;;;;;;;;;;0.81;66.39;99909.34;5116746;28;20323;-63
2023/03/18 03:58:45;;;;;;;;;;;;;;;0.70;66.46;99921.44;5116068;28;19923;-63
2023/03/18 04:01:14;;;;;;;;;;;;;;;0.70;66.74;99926.47;5114617;28;19945;-63
2023/03/18 04:03:45;;;;;;;;;;;;;;;0.71;66.86;99918.16;5116035;28;19923;-63
2023/03/18 04:06:14;;;;;;;;;;;;;;;0.73;66.70;99921.59;5116005;28;19919;-63
2023/03/18 04:08:52;;;;;;;;;;;;;;;0.70;66.58;99920.63;5114866;28;19924;-63
2023/03/18 04:11:21;;;;;;;;;;;;;;;0.73;66.38;99919.06;5115911;28;19930;-63
2023/03/18 04:13:49;;;;;;;;;;;;;;;0.83;66.48;99922.81;5114628;28;19990;-63
2023/03/18 04:16:18;;;;;;;;;;;;;;;0.87;66.11;99925.53;5114849;28;19969;-63
2023/03/18 04:18:48;;;;;;;;;;;;;;;0.84;66.24;99917.03;5114267;28;20346;-63
2023/03/18 04:21:21;;;;;;;;;;;;;;;0.89;66.13;99923.94;5115698;28;19919;-63
2023/03/18 04:23:55;;;;;;;;;;;;;;;0.87;66.20;99924.66;5115966;28;20454;-63
2023/03/18 04:26:24;;;;;;;;;;;;;;;0.83;66.38;99922.81;5114780;28;19960;-63
2023/03/18 04:28:54;;;;;;;;;;;;;;;0.79;65.75;99918.47;5114246;28;19968;-63
2023/03/18 04:31:23;;;;;;;;;;;;;;;0.77;66.18;99917.56;5115393;28;19920;-63
2023/03/18 04:33:52;;;;;;;;;;;;;;;0.79;65.92;99926.03;5115413;28;19923;-63
2023/03/18 04:36:20;;;;;;;;;;;;;;;0.79;66.46;99926.88;5114154;28;19942;-63
2023/03/18 04:38:50;;;;;;;;;;;;;;;0.77;65.97;99923.44;5114043;28;19919;-63
2023/03/18 04:41:20;;;;;;;;;;;;;;;0.78;66.21;99930.19;5115640;28;19920;-63
2023/03/18 04:43:50;;;;;;;;;;;;;;;0.71;65.98;99928.22;5114451;28;19920;-63
2023/03/18 04:46:19;;;;;;;;;;;;;;;0.65;66.24;99927.94;5115172;28;19920;-63
2023/03/18 04:48:49;;;;;;;;;;;;;;;0.70;66.51;99930.66;5115152;28;19957;-64
2023/03/18 04:51:18;;;;;;;;;;;;;;;0.68;66.48;99938.13;5114182;28;20339;-63
2023/03/18 04:53:47;;;;;;;;;;;;;;;0.68;66.05;99933.09;5114169;28;20404;-63
2023/03/18 04:56:16;;;;;;;;;;;;;;;0.69;65.97;99932.31;5113840;28;19919;-63
2023/03/18 04:58:51;;;;;;;;;;;;;;;0.53;66.25;99938.31;5114934;28;19919;-63
2023/03/18 05:01:27;;;;;;;;;;;;;;;0.50;65.94;99933.19;5114816;28;19920;-63
2023/03/18 05:03:56;;;;;;;;;;;;;;;0.48;66.20;99933.91;5113587;28;20396;-63
2023/03/18 05:06:32;;;;;;;;;;;;;;;0.40;66.35;99933.59;5114872;28;19972;-63
2023/03/18 05:09:07;;;;;;;;;;;;;;;0.46;66.27;99940.50;5114831;28;19919;-63
2023/03/18 05:11:37;;;;;;;;;;;;;;;0.47;66.22;99937.22;5113653;28;20418;-63
2023/03/18 05:14:15;;;;;;;;;;;;;;;0.50;66.63;99942.38;5113959;28;20377;-63
2023/03/18 05:16:47;;;;;;;;;;;;;;;0.50;66.38;99952.41;5114678;28;20365;-63
2023/03/18 05:19:17;;;;;;;;;;;;;;;0.58;66.41;99946.03;5114453;28;19945;-63
2023/03/18 05:21:57;;;;;;;;;;;;;;;0.57;66.28;99942.69;5113385;28;19919;-63
2023/03/18 05:24:26;;;;;;;;;;;;;;;0.60;66.30;99949.50;5113688;28;20269;-63
2023/03/18 05:26:55;;;;;;;;;;;;;;;0.61;66.36;99946.19;5114592;28;19965;-63
2023/03/18 05:29:33;;;;;;;;;;;;;;;0.66;66.57;99950.63;5114624;28;20016;-63
2023/03/18 05:32:24;;;;;;;;;;;;;;;0.65;66.37;99958.06;5114388;28;19919;-63
2023/03/18 05:35:00;;;;;;;;;;;;;;;0.72;66.35;99961.72;5114450;28;19969;-63
2023/03/18 05:37:30;;;;;;;;;;;;;;;0.78;66.61;99960.31;5114762;28;20323;-63
2023/03/18 05:40:08;;;;;;;;;;;;;;;0.89;66.40;99959.09;5114359;28;19920;-63
2023/03/18 05:42:39;;;;;;;;;;;;;;;0.94;66.42;99960.16;5113045;28;19920;-63
2023/03/18 05:45:30;;;;;;;;;;;;;;;1.02;66.43;99963.84;5114359;28;19920;-63
2023/03/18 05:47:59;;;;;;;;;;;;;;;1.14;65.77;99961.84;5113279;28;19923;-63
2023/03/18 05:50:32;;;;;;;;;;;;;;;1.29;66.36;99962.47;5114191;28;19920;-64
2023/03/18 05:53:04;;;;;;;;;;;;;;;1.32;65.78;99967.59;5114025;28;19923;-63
2023/03/18 05:55:37;;;;;;;;;;;;;;;1.49;65.71;99964.94;5112638;28;19934;-63
2023/03/18 05:58:07;;;;;;;;;;;;;;;1.68;65.61;99973.22;5112866;28;19923;-63
2023/03/18 06:00:40;;;;;;;;;;;;;;;1.84;64.53;99974.69;5113010;28;20423;-63
2023/03/18 06:03:09;;;;;;;;;;;;;;;2.03;65.04;99969.56;5112612;28;20381;-63
2023/03/18 06:05:38;;;;;;;;;;;;;;;2.16;63.95;99969.19;5113993;28;19920;-63
2023/03/18 06:08:08;;;;;;;;;;;;;;;2.24;63.73;99972.84;5113800;28;20399;-64
2023/03/18 06:10:37;;;;;;;;;;;;;;;2.35;63.87;99971.56;5112614;28;19955;-63
2023/03/18 06:13:06;;;;;;;;;;;;;;;2.51;63.65;99981.44;5113875;28;19920;-63
2023/03/18 06:15:35;;;;;;;;;;;;;;;2.65;63.61;99980.25;5112476;28;19919;-64
2023/03/18 06:18:05;;;;;;;;;;;;;;;2.86;62.54;99985.16;5112775;28;20014;-63
2023/03/18 06:20:34;;;;;;;;;;;;;;;3.01;62.23;99979.78;5112834;28;19926;-63
2023/03/18 06:23:02;;;;;;;;;;;;;;;3.22;61.97;99988.06;5112768;28;19964;-63
2023/03/18 06:25:31;;;;;;;;;;;;;;;3.43;61.82;99991.31;5115317;28;19919;-63
2023/03/18 06:28:00;;;;;;;;;;;;;;;3.69;61.00;99987.97;5117362;28;19919;-63
2023/03/18 06:30:31;;;;;;;;;;;;;;;3.90;61.25;99991.13;5118142;27;20372;-63
2023/03/18 06:33:00;;;;;;;;;;;;;;;4.11;60.79;99990.06;5099848;28;20347;-63
2023/03/18 06:35:30;;;;;;;;;;;;;;;4.39;60.09;99993.44;5116275;28;20022;-63
2023/03/18 06:38:00;;;;;;;;;;;;;;;4.67;59.73;100000.13;5116582;28;19926;-63
2023/03/18 06:40:29;;;;;;;;;;;;;;;4.95;59.44;99995.00;5115789;28;19920;-63
2023/03/18 06:42:58;;;;;;;;;;;;;;;5.16;59.15;100000.59;5117842;28;19920;-63
2023/03/18 06:45:36;;;;;;;;;;;;;;;5.54;58.16;99999.06;5116185;28;20384;-64
2023/03/18 06:48:07;;;;;;;;;;;;;;;5.73;57.70;100000.34;5115722;28;19969;-63
2023/03/18 06:50:39;;;;;;;;;;;;;;;5.96;56.75;99992.50;5116052;28;19920;-63
2023/03/18 06:53:14;;;;;;;;;;;;;;;6.23;56.28;99989.72;5117363;28;19931;-63
2023/03/18 06:55:44;;;;;;;;;;;;;;;6.47;55.60;99990.22;5116159;28;19924;-63
2023/03/18 06:58:14;;;;;;;;;;;;;;;6.55;54.81;99995.44;5117546;27;19963;-63
2023/03/18 07:00:56;;;;;;;;;;;;;;;6.61;52.17;99996.44;5117342;28;19919;-63
2023/03/18 07:03:28;;;;;;;;;;;;;;;6.75;50.19;100002.63;5116909;28;20388;-64
2023/03/18 07:05:58;;;;;;;;;;;;;;;6.95;48.08;99999.59;5115818;28;19945;-63
2023/03/18 07:08:28;;;;;;;;;;;;;;;7.17;46.54;100004.25;5115756;28;19920;-63
2023/03/18 07:10:56;;;;;;;;;;;;;;;7.39;45.63;100003.78;5115915;28;19969;-63
2023/03/18 07:13:27;;;;;;;;;;;;;;;7.55;44.86;100015.94;5117639;27;20273;-63
2023/03/18 07:15:57;;;;;;;;;;;;;;;7.66;44.05;100009.31;5115369;28;19926;-63
2023/03/18 07:18:26;;;;;;;;;;;;;;;7.78;43.14;100009.53;5115397;28;19919;-63
2023/03/18 07:20:55;;;;;;;;;;;;;;;7.89;42.66;100023.22;5115516;28;19924;-64
2023/03/18 07:23:26;;;;;;;;;;;;;;;7.88;42.36;100013.91;5116766;28;19920;-63
2023/03/18 07:25:57;;;;;;;;;;;;;;;7.98;41.78;100010.69;5116822;28;19965;-63
2023/03/18 07:28:26;;;;;;;;;;;;;;;8.05;42.20;100016.72;5116655;28;19951;-63
2023/03/18 07:30:54;;;;;;;;;;;;;;;8.21;41.98;100011.00;5115800;28;19930;-63
2023/03/18 07:33:24;;;;;;;;;;;;;;;8.34;41.17;100018.00;5116558;28;20005;-63
2023/03/18 07:35:52;;;;;;;;;;;;;;;8.43;40.78;100017.25;5116382;28;19920;-63
2023/03/18 07:38:21;;;;;;;;;;;;;;;8.52;39.83;100012.28;5115894;28;19926;-63
2023/03/18 07:40:51;;;;;;;;;;;;;;;8.67;40.31;100022.66;5116420;28;20426;-64
2023/03/18 07:43:19;;;;;;;;;;;;;;;8.85;40.06;100017.81;5116268;28;20345;-64
2023/03/18 07:45:48;;;;;;;;;;;;;;;9.02;39.22;100016.28;5115094;28;19920;-63
2023/03/18 07:48:16;;;;;;;;;;;;;;;9.20;38.94;100023.28;5115955;28;19972;-63
2023/03/18 07:50:45;;;;;;;;;;;;;;;9.29;38.92;100014.03;5116170;28;20014;-63
2023/03/18 07:53:14;;;;;;;;;;;;;;;9.30;38.67;100018.28;5116433;28;20369;-63
2023/03/18 07:55:45;;;;;;;;;;;;;;;9.38;38.68;100024.28;5116215;28;19972;-63
2023/03/18 07:58:15;;;;;;;;;;;;;;;9.43;38.18;100025.19;5116078;27;19920;-63
2023/03/18 08:00:43;;;;;;;;;;;;;;;9.41;38.43;100021.78;5116213;28;20335;-63
2023/03/18 08:03:12;;;;;;;;;;;;;;;9.37;38.46;100025.16;5115783;28;19926;-63
2023/03/18 08:05:41;;;;;;;;;;;;;;;9.50;38.37;100027.81;5116266;27;19968;-63
2023/03/18 08:08:09;;;;;;;;;;;;;;;9.67;37.32;100026.28;5115846;28;19920;-63
2023/03/18 08:10:38;;;;;;;;;;;;;;;9.73;37.39;100026.31;5115862;28;19963;-63
2023/03/18 08:13:06;;;;;;;;;;;;;;;9.69;37.52;100022.91;5115819;28;19920;-63
2023/03/18 08:15:36;;;;;;;;;;;;;;;9.89;36.94;100025.56;5115545;28;19933;-63
2023/03/18 08:18:05;;;;;;;;;;;;;;;9.97;36.67;100021.41;5115438;28;19919;-63
2023/03/18 08:20:37;;;;;;;;;;;;;;;10.03;37.36;100018.88;5115663;28;20411;-63
2023/03/18 08:23:05;;;;;;;;;;;;;;;10.00;36.39;100021.44;5115531;28;19920;-63
2023/03/18 08:25:33;;;;;;;;;;;;;;;10.05;36.72;100020.59;5115594;28;19962;-63
2023/03/18 08:28:06;;;;;;;;;;;;;;;10.16;36.39;100009.66;5115484;28;19920;-63
2023/03/18 08:30:38;;;;;;;;;;;;;;;10.32;36.66;100017.41;5116175;28;19946;-63
2023/03/18 08:33:07;;;;;;;;;;;;;;;10.39;36.33;100014.03;5115418;28;19920;-63
2023/03/18 08:35:36;;;;;;;;;;;;;;;10.46;36.13;100014.94;5115312;28;19920;-63
2023/03/18 08:38:05;;;;;;;;;;;;;;;10.37;35.47;100009.75;5115330;28;19930;-63
2023/03/18 08:40:35;;;;;;;;;;;;;;;10.27;35.48;100013.97;5115169;28;20010;-63
2023/03/18 08:43:03;;;;;;;;;;;;;;;10.44;35.70;100009.81;5115234;28;19942;-64
2023/03/18 08:45:31;;;;;;;;;;;;;;;10.66;36.26;100014.19;5115415;28;20296;-63
2023/03/18 08:48:02;;;;;;;;;;;;;;;10.77;36.50;100017.59;5115688;28;19923;-64
2023/03/18 08:50:30;;;;;;;;;;;;;;;10.67;36.13;100028.66;5115096;28;19927;-63
2023/03/18 08:53:00;;;;;;;;;;;;;;;10.64;35.49;100020.97;5115014;28;20029;-63
2023/03/18 08:55:29;;;;;;;;;;;;;;;10.75;35.62;100004.00;5115023;28;20019;-63
2023/03/18 08:57:59;;;;;;;;;;;;;;;10.81;35.11;100010.84;5114817;28;19926;-63
2023/03/18 09:00:28;;;;;;;;;;;;;;;10.85;35.31;100014.22;5114868;28;19923;-63
2023/03/18 09:02:56;;;;;;;;;;;;;;;10.95;35.08;100010.88;5115500;28;19919;-63
2023/03/18 09:05:26;;;;;;;;;;;;;;;10.86;34.49;100013.41;5114808;28;19925;-63
2023/03/18 09:07:55;;;;;;;;;;;;;;;10.93;34.35;100007.47;5114736;28;19923;-63
2023/03/18 09:10:23;;;;;;;;;;;;;;;10.94;33.95;100004.06;5114660;28;19920;-63
2023/03/18 09:12:52;;;;;;;;;;;;;;;11.02;34.45;99997.25;5114739;28;19920;-67
2023/03/18 09:15:21;;;;;;;;;;;;;;;11.15;34.70;100004.13;5114642;28;19977;-63
2023/03/18 09:17:49;;;;;;;;;;;;;;;11.33;34.53;100002.44;5114736;28;19926;-63
2023/03/18 09:20:38;;;;;;;;;;;;;;;11.51;34.09;99996.50;5115034;28;20311;-63
2023/03/18 09:23:07;;;;;;;;;;;;;;;11.60;33.73;99996.50;5114650;28;19958;-63
2023/03/18 09:25:35;;;;;;;;;;;;;;;11.63;33.51;100004.19;5114486;28;19923;-63
2023/03/18 09:28:04;;;;;;;;;;;;;;;11.57;34.19;99996.50;5114784;28;20022;-63
2023/03/18 09:30:32;;;;;;;;;;;;;;;11.64;34.71;100000.75;5114462;28;19981;-63
2023/03/18 09:33:01;;;;;;;;;;;;;;;11.75;34.38;99993.97;5114411;28;19967;-63
2023/03/18 09:35:30;;;;;;;;;;;;;;;11.79;34.63;100000.78;5114814;28;20334;-62
2023/03/18 09:38:00;;;;;;;;;;;;;;;11.94;34.33;99995.66;5114602;28;20386;-63
2023/03/18 09:40:31;;;;;;;;;;;;;;;11.88;34.40;99995.66;5114296;28;19919;-63
2023/03/18 09:43:05;;;;;;;;;;;;;;;11.98;34.81;99994.81;5114402;28;19920;-63
2023/03/18 09:45:36;;;;;;;;;;;;;;;12.05;34.89;99993.06;5115063;28;19920;-63
2023/03/18 09:48:15;;;;;;;;;;;;;;;11.96;35.03;99990.53;5114464;28;19920;-63
2023/03/18 09:50:49;;;;;;;;;;;;;;;11.98;34.09;99982.00;5114645;28;19920;-63
2023/03/18 09:53:21;;;;;;;;;;;;;;;12.08;33.77;99982.84;5114293;28;19927;-63
2023/03/18 09:55:54;;;;;;;;;;;;;;;12.10;33.78;99981.13;5114578;28;19923;-63
2023/03/18 09:58:28;;;;;;;;;;;;;;;12.16;33.77;99985.41;5114254;28;19926;-64
2023/03/18 10:00:59;;;;;;;;;;;;;;;12.08;34.06;99983.72;5116755;28;19962;-62
2023/03/18 10:03:32;;;;;;;;;;;;;;;12.18;33.81;99988.78;5118206;28;19927;-63
2023/03/18 10:06:03;;;;;;;;;;;;;;;12.03;33.64;99980.31;5118341;28;20026;-63
2023/03/18 10:08:41;;;;;;;;;;;;;;;12.18;33.54;99968.31;5118255;28;19926;-62
2023/03/18 10:11:14;;;;;;;;;;;;;;;12.21;33.01;99958.09;5118257;28;19989;-62
2023/03/18 10:13:45;;;;;;;;;;;;;;;12.21;32.49;99958.09;5118432;28;19919;-63
2023/03/18 10:16:20;;;;;;;;;;;;;;;12.29;32.31;99964.00;5118157;28;20415;-64
2023/03/18 10:18:49;;;;;;;;;;;;;;;12.40;31.99;99959.72;5117806;28;19920;-63
2023/03/18 10:21:26;;;;;;;;;;;;;;;12.61;32.01;99955.38;5118350;27;19920;-63
2023/03/18 10:24:00;;;;;;;;;;;;;;;12.77;31.83;99956.13;5118009;28;19926;-63
2023/03/18 10:26:32;;;;;;;;;;;;;;;12.83;31.90;99953.56;5117897;28;19919;-63
2023/03/18 10:29:04;;;;;;;;;;;;;;;12.79;31.66;99949.28;5117962;28;19920;-63
2023/03/18 10:31:38;;;;;;;;;;;;;;;12.84;31.13;99952.69;5117916;28;20023;-63
2023/03/18 10:34:12;;;;;;;;;;;;;;;12.73;30.53;99950.19;5117730;28;19928;-63
2023/03/18 10:36:48;;;;;;;;;;;;;;;12.72;31.19;99947.63;5117749;28;19920;-63
2023/03/18 10:39:19;;;;;;;;;;;;;;;12.70;31.35;99945.09;5117675;27;19967;-63
2023/03/18 10:41:49;;;;;;;;;;;;;;;12.77;31.74;99935.66;5118131;27;19955;-63
2023/03/18 10:44:20;;;;;;;;;;;;;;;12.81;30.43;99947.59;5117851;28;19920;-63
2023/03/18 10:46:54;;;;;;;;;;;;;;;12.70;29.68;99944.22;5117813;28;19926;-63
2023/03/18 10:49:25;;;;;;;;;;;;;;;12.94;29.60;99933.84;5117546;28;19927;-63
2023/03/18 10:51:55;;;;;;;;;;;;;;;13.22;29.21;99935.38;5116485;28;19919;-63
2023/03/18 10:54:27;;;;;;;;;;;;;;;13.43;28.96;99935.25;5117450;28;20369;-63
2023/03/18 10:56:56;;;;;;;;;;;;;;;13.48;28.65;99929.22;5117600;28;20357;-62
2023/03/18 10:59:25;;;;;;;;;;;;;;;13.43;28.54;99922.41;5116391;28;20370;-63
2023/03/18 11:01:57;;;;;;;;;;;;;;;13.50;28.27;99919.78;5117111;28;19927;-63
2023/03/18 11:04:29;;;;;;;;;;;;;;;13.65;28.88;99919.66;5117176;28;19961;-63
2023/03/18 11:07:00;;;;;;;;;;;;;;;13.82;28.44;99922.91;5117542;28;19920;-63
2023/03/18 11:09:35;;;;;;;;;;;;;;;13.77;27.74;99909.28;5117040;28;19920;-63
2023/03/18 11:12:04;;;;;;;;;;;;;;;13.77;27.39;99915.25;5115747;28;19920;-63
2023/03/18 11:14:33;;;;;;;;;;;;;;;13.65;25.26;99905.13;5117145;27;20379;-64
2023/03/18 11:17:03;;;;;;;;;;;;;;;13.44;23.34;99910.41;5116820;28;19927;-64
2023/03/18 11:19:32;;;;;;;;;;;;;;;13.08;22.97;99911.56;5116749;28;19926;-63
2023/03/18 11:22:03;;;;;;;;;;;;;;;12.98;23.40;99904.75;5117052;28;20369;-63
2023/03/18 11:24:38;;;;;;;;;;;;;;;13.30;23.70;99902.84;5116854;28;19919;-63
2023/03/18 11:27:21;;;;;;;;;;;;;;;13.60;23.29;99901.75;5116802;28;19924;-64
2023/03/18 11:29:54;;;;;;;;;;;;;;;13.74;23.26;99888.78;5117072;28;19978;-63
2023/03/18 11:32:27;;;;;;;;;;;;;;;13.96;23.36;99895.41;5116756;28;19926;-63
2023/03/18 11:34:57;;;;;;;;;;;;;;;14.05;23.48;99879.88;5116675;28;20363;-63
2023/03/18 11:37:33;;;;;;;;;;;;;;;14.00;24.01;99891.91;5116897;28;19920;-63
2023/03/18 11:40:12;;;;;;;;;;;;;;;13.94;24.66;99892.00;5116619;28;20006;-63
2023/03/18 11:42:42;;;;;;;;;;;;;;;13.97;24.14;99881.69;5116944;28;19981;-63
2023/03/18 11:45:23;;;;;;;;;;;;;;;14.19;24.68;99884.84;5116383;28;19920;-63
2023/03/18 11:47:52;;;;;;;;;;;;;;;14.25;25.36;99883.06;5116376;28;19919;-63
2023/03/18 11:50:24;;;;;;;;;;;;;;;14.03;24.49;99876.50;5116571;28;20302;-62
2023/03/18 11:52:58;;;;;;;;;;;;;;;14.03;25.09;99881.63;5116455;28;19955;-63
2023/03/18 11:55:32;;;;;;;;;;;;;;;14.07;26.45;99881.56;5116304;28;19972;-62
2023/03/18 11:58:16;;;;;;;;;;;;;;;13.93;26.51;99886.00;5116567;28;20022;-63
2023/03/18 12:00:51;;;;;;;;;;;;;;;13.90;26.91;99880.03;5116149;28;20378;-64
2023/03/18 12:03:29;;;;;;;;;;;;;;;13.92;27.48;99878.31;5116113;28;19920;-63
2023/03/18 12:06:10;;;;;;;;;;;;;;;14.09;27.24;99871.28;5116079;28;20425;-63
2023/03/18 12:08:50;;;;;;;;;;;;;;;14.23;28.42;99864.25;5115024;28;19919;-63
2023/03/18 12:11:24;;;;;;;;;;;;;;;14.38;28.92;99870.94;5116696;28;19962;-63
2023/03/18 12:13:59;;;;;;;;;;;;;;;14.23;28.72;99873.69;5115909;28;20018;-63
2023/03/18 12:16:39;;;;;;;;;;;;;;;14.26;28.75;99864.22;5116036;27;19924;-63
2023/03/18 12:19:24;;;;;;;;;;;;;;;14.38;28.71;99864.09;5115578;28;19930;-63
2023/03/18 12:22:03;;;;;;;;;;;;;;;14.25;28.92;99861.69;5115570;28;19919;-63
2023/03/18 12:24:43;;;;;;;;;;;;;;;14.41;28.37;99850.38;5115223;28;19920;-63
2023/03/18 12:27:15;;;;;;;;;;;;;;;14.49;27.68;99857.09;5115649;28;20010;-63
2023/03/18 12:29:59;;;;;;;;;;;;;;;14.62;27.51;99858.63;5115535;28;19950;-63
2023/03/18 12:32:31;;;;;;;;;;;;;;;14.49;28.42;99854.50;5115515;28;19947;-63
2023/03/18 12:35:08;;;;;;;;;;;;;;;14.47;28.62;99848.56;5115880;28;19919;-63
2023/03/18 12:37:43;;;;;;;;;;;;;;;14.50;28.52;99850.22;5115473;27;20419;-63
2023/03/18 12:40:24;;;;;;;;;;;;;;;14.50;28.73;99840.81;5115670;28;19941;-63
2023/03/18 12:43:01;;;;;;;;;;;;;;;14.47;27.83;99853.69;5115360;28;20281;-63
2023/03/18 12:45:34;;;;;;;;;;;;;;;14.40;28.69;99849.50;5115607;28;20006;-63
2023/03/18 12:48:05;;;;;;;;;;;;;;;14.37;28.80;99853.84;5115281;28;19926;-63
2023/03/18 12:50:37;;;;;;;;;;;;;;;14.42;28.95;99845.19;5115153;28;19920;-63
2023/03/18 12:53:09;;;;;;;;;;;;;;;14.57;28.57;99850.13;5115160;28;20327;-63
2023/03/18 12:55:39;;;;;;;;;;;;;;;14.70;28.76;99846.53;5115105;28;19955;-63
2023/03/18 12:58:13;;;;;;;;;;;;;;;14.67;29.00;99840.56;5115021;28;19926;-63
2023/03/18 13:00:47;;;;;;;;;;;;;;;14.68;29.08;99845.66;5115386;28;20014;-63
2023/03/18 13:03:23;;;;;;;;;;;;;;;14.63;29.35;99842.34;5114919;28;20361;-63
2023/03/18 13:05:53;;;;;;;;;;;;;;;14.75;29.54;99834.47;5114940;28;19926;-63
2023/03/18 13:08:34;;;;;;;;;;;;;;;14.77;29.09;99837.84;5115286;28;19919;-62
2023/03/18 13:11:05;;;;;;;;;;;;;;;14.70;28.90;99825.97;5114831;28;19920;-63